Augusta, New Jersey
Current Conditions -  °F | °C
As of 8:53 AM on Monday 24 Nov 2014 (Local Time) from KFWN Reporting Station
Overcast Overcast  
Wind Chill: 65°   Ceiling: 2400
Heat Index: 65°   Visibility: 10mi
Dew Point: 58°   Wind: 10mph
Humidity: 78%   Direction: 200°SSW
Pressure: 29.64"   Gusts: 22mph
Location:  41.13°N, 74.73°W
Report Text: KFWN 241353Z AUTO 20009G19KT 10SM BKN024 OVC029 18/14 A2964 RMK AO2 SLP036 T01830144
Loading
Personal Weather Stations






























Interactive Weather Map New forecast layout! Learn more

10-Day Weather Forecast

Advertisements
Track Severe Weather on mobile